sensor_id;sensor_type;location;lat;lon;timestamp;P1;durP1;ratioP1;P2;durP2;ratioP2
62633;SDS011;48704;50.534;6.442;2023-11-19T00:01:48;0.73;;;0.40;;
62633;SDS011;48704;50.534;6.442;2023-11-19T00:04:19;1.50;;;0.40;;
62633;SDS011;48704;50.534;6.442;2023-11-19T00:11:03;0.75;;;0.35;;
62633;SDS011;48704;50.534;6.442;2023-11-19T00:30:27;4.55;;;0.82;;
62633;SDS011;48704;50.534;6.442;2023-11-19T00:36:41;2.20;;;1.00;;
62633;SDS011;48704;50.534;6.442;2023-11-19T00:39:41;2.03;;;0.63;;
62633;SDS011;48704;50.534;6.442;2023-11-19T00:50:04;1.85;;;0.68;;
62633;SDS011;48704;50.534;6.442;2023-11-19T00:52:30;0.77;;;0.35;;
62633;SDS011;48704;50.534;6.442;2023-11-19T00:54:55;0.98;;;0.40;;
62633;SDS011;48704;50.534;6.442;2023-11-19T00:57:21;0.73;;;0.40;;
62633;SDS011;48704;50.534;6.442;2023-11-19T00:59:47;1.48;;;0.40;;
62633;SDS011;48704;50.534;6.442;2023-11-19T01:02:13;1.10;;;0.50;;
62633;SDS011;48704;50.534;6.442;2023-11-19T01:04:39;0.85;;;0.40;;
62633;SDS011;48704;50.534;6.442;2023-11-19T01:07:07;0.70;;;0.30;;
62633;SDS011;48704;50.534;6.442;2023-11-19T01:09:37;0.68;;;0.20;;
62633;SDS011;48704;50.534;6.442;2023-11-19T01:12:03;1.02;;;0.20;;
62633;SDS011;48704;50.534;6.442;2023-11-19T01:14:29;0.63;;;0.40;;
62633;SDS011;48704;50.534;6.442;2023-11-19T01:16:55;0.60;;;0.30;;
62633;SDS011;48704;50.534;6.442;2023-11-19T01:19:21;2.70;;;0.98;;
62633;SDS011;48704;50.534;6.442;2023-11-19T01:21:47;10.82;;;3.15;;
62633;SDS011;48704;50.534;6.442;2023-11-19T01:24:13;4.25;;;1.27;;
62633;SDS011;48704;50.534;6.442;2023-11-19T01:26:39;0.90;;;0.20;;
62633;SDS011;48704;50.534;6.442;2023-11-19T01:29:10;1.13;;;0.50;;
62633;SDS011;48704;50.534;6.442;2023-11-19T01:31:40;2.42;;;0.38;;
62633;SDS011;48704;50.534;6.442;2023-11-19T01:34:06;1.02;;;0.20;;
62633;SDS011;48704;50.534;6.442;2023-11-19T01:36:32;1.05;;;0.60;;
62633;SDS011;48704;50.534;6.442;2023-11-19T01:38:57;3.33;;;0.60;;
62633;SDS011;48704;50.534;6.442;2023-11-19T01:41:22;3.25;;;0.80;;
62633;SDS011;48704;50.534;6.442;2023-11-19T01:43:48;4.03;;;1.00;;
62633;SDS011;48704;50.534;6.442;2023-11-19T01:46:13;3.22;;;0.90;;
62633;SDS011;48704;50.534;6.442;2023-11-19T01:48:42;5.47;;;0.88;;
62633;SDS011;48704;50.534;6.442;2023-11-19T01:51:10;5.07;;;1.20;;
62633;SDS011;48704;50.534;6.442;2023-11-19T01:53:37;7.72;;;1.02;;
62633;SDS011;48704;50.534;6.442;2023-11-19T01:56:04;12.68;;;1.52;;
62633;SDS011;48704;50.534;6.442;2023-11-19T01:58:33;9.40;;;1.50;;
62633;SDS011;48704;50.534;6.442;2023-11-19T02:00:59;4.07;;;1.13;;
62633;SDS011;48704;50.534;6.442;2023-11-19T02:03:25;4.68;;;1.20;;
62633;SDS011;48704;50.534;6.442;2023-11-19T02:05:51;3.50;;;0.95;;
62633;SDS011;48704;50.534;6.442;2023-11-19T02:08:18;5.85;;;1.00;;
62633;SDS011;48704;50.534;6.442;2023-11-19T02:10:43;2.00;;;0.73;;
62633;SDS011;48704;50.534;6.442;2023-11-19T02:13:08;3.97;;;1.10;;
62633;SDS011;48704;50.534;6.442;2023-11-19T02:15:35;3.47;;;1.00;;
62633;SDS011;48704;50.534;6.442;2023-11-19T02:18:19;2.70;;;1.40;;
62633;SDS011;48704;50.534;6.442;2023-11-19T02:20:49;5.22;;;1.20;;
62633;SDS011;48704;50.534;6.442;2023-11-19T02:23:15;7.43;;;1.33;;
62633;SDS011;48704;50.534;6.442;2023-11-19T02:25:41;5.63;;;1.25;;
62633;SDS011;48704;50.534;6.442;2023-11-19T02:28:08;4.55;;;1.02;;
62633;SDS011;48704;50.534;6.442;2023-11-19T02:30:36;3.17;;;0.77;;
62633;SDS011;48704;50.534;6.442;2023-11-19T02:33:02;6.47;;;1.25;;
62633;SDS011;48704;50.534;6.442;2023-11-19T02:35:30;6.93;;;1.20;;
62633;SDS011;48704;50.534;6.442;2023-11-19T02:37:56;7.93;;;1.42;;
62633;SDS011;48704;50.534;6.442;2023-11-19T02:40:22;3.38;;;1.05;;
62633;SDS011;48704;50.534;6.442;2023-11-19T02:42:49;7.25;;;1.38;;
62633;SDS011;48704;50.534;6.442;2023-11-19T02:45:15;6.13;;;1.65;;
62633;SDS011;48704;50.534;6.442;2023-11-19T02:47:41;6.47;;;1.52;;
62633;SDS011;48704;50.534;6.442;2023-11-19T02:50:12;5.25;;;1.13;;
62633;SDS011;48704;50.534;6.442;2023-11-19T02:52:42;4.45;;;1.33;;
62633;SDS011;48704;50.534;6.442;2023-11-19T02:55:08;7.35;;;1.75;;
62633;SDS011;48704;50.534;6.442;2023-11-19T02:57:37;5.45;;;1.40;;
62633;SDS011;48704;50.534;6.442;2023-11-19T03:00:03;5.53;;;1.40;;
62633;SDS011;48704;50.534;6.442;2023-11-19T03:02:38;9.52;;;1.30;;
62633;SDS011;48704;50.534;6.442;2023-11-19T03:05:09;3.53;;;0.88;;
62633;SDS011;48704;50.534;6.442;2023-11-19T03:07:35;5.88;;;1.35;;
62633;SDS011;48704;50.534;6.442;2023-11-19T03:10:00;6.35;;;1.80;;
62633;SDS011;48704;50.534;6.442;2023-11-19T03:12:25;4.80;;;1.35;;
62633;SDS011;48704;50.534;6.442;2023-11-19T03:14:51;4.05;;;1.48;;
62633;SDS011;48704;50.534;6.442;2023-11-19T03:17:16;5.93;;;1.65;;
62633;SDS011;48704;50.534;6.442;2023-11-19T03:19:42;6.60;;;1.58;;
62633;SDS011;48704;50.534;6.442;2023-11-19T03:22:07;6.57;;;1.60;;
62633;SDS011;48704;50.534;6.442;2023-11-19T03:24:32;7.07;;;1.50;;
62633;SDS011;48704;50.534;6.442;2023-11-19T03:26:58;9.20;;;1.75;;
62633;SDS011;48704;50.534;6.442;2023-11-19T03:29:23;7.97;;;1.73;;
62633;SDS011;48704;50.534;6.442;2023-11-19T03:31:48;6.70;;;1.33;;
62633;SDS011;48704;50.534;6.442;2023-11-19T03:34:15;9.18;;;1.25;;
62633;SDS011;48704;50.534;6.442;2023-11-19T03:36:40;6.70;;;2.40;;
62633;SDS011;48704;50.534;6.442;2023-11-19T03:39:05;6.15;;;1.33;;
62633;SDS011;48704;50.534;6.442;2023-11-19T03:41:31;12.75;;;2.03;;
62633;SDS011;48704;50.534;6.442;2023-11-19T03:43:56;2.33;;;0.90;;
62633;SDS011;48704;50.534;6.442;2023-11-19T03:46:22;5.13;;;1.65;;
62633;SDS011;48704;50.534;6.442;2023-11-19T03:48:47;4.85;;;1.42;;
62633;SDS011;48704;50.534;6.442;2023-11-19T03:51:13;4.80;;;1.13;;
62633;SDS011;48704;50.534;6.442;2023-11-19T03:53:41;6.68;;;1.45;;
62633;SDS011;48704;50.534;6.442;2023-11-19T03:56:08;6.35;;;1.60;;
62633;SDS011;48704;50.534;6.442;2023-11-19T03:58:34;8.40;;;1.40;;
62633;SDS011;48704;50.534;6.442;2023-11-19T04:01:00;6.88;;;1.48;;
62633;SDS011;48704;50.534;6.442;2023-11-19T04:03:26;7.25;;;1.52;;
62633;SDS011;48704;50.534;6.442;2023-11-19T04:05:52;6.75;;;1.60;;
62633;SDS011;48704;50.534;6.442;2023-11-19T04:08:19;8.48;;;1.40;;
62633;SDS011;48704;50.534;6.442;2023-11-19T04:10:46;4.82;;;1.05;;
62633;SDS011;48704;50.534;6.442;2023-11-19T04:13:14;2.90;;;1.10;;
62633;SDS011;48704;50.534;6.442;2023-11-19T04:15:42;4.25;;;1.15;;
62633;SDS011;48704;50.534;6.442;2023-11-19T04:18:11;7.30;;;1.92;;
62633;SDS011;48704;50.534;6.442;2023-11-19T04:20:37;8.13;;;1.58;;
62633;SDS011;48704;50.534;6.442;2023-11-19T04:23:07;5.47;;;1.15;;
62633;SDS011;48704;50.534;6.442;2023-11-19T04:25:34;10.52;;;1.63;;
62633;SDS011;48704;50.534;6.442;2023-11-19T04:28:02;6.10;;;1.35;;
62633;SDS011;48704;50.534;6.442;2023-11-19T04:30:31;7.85;;;1.38;;
62633;SDS011;48704;50.534;6.442;2023-11-19T04:33:16;11.65;;;1.48;;
62633;SDS011;48704;50.534;6.442;2023-11-19T04:36:25;7.35;;;1.33;;
62633;SDS011;48704;50.534;6.442;2023-11-19T04:38:58;10.02;;;3.03;;
62633;SDS011;48704;50.534;6.442;2023-11-19T04:41:24;4.80;;;2.08;;
62633;SDS011;48704;50.534;6.442;2023-11-19T04:43:50;12.40;;;1.98;;
62633;SDS011;48704;50.534;6.442;2023-11-19T04:46:15;4.38;;;1.40;;
62633;SDS011;48704;50.534;6.442;2023-11-19T04:48:41;9.73;;;1.77;;
62633;SDS011;48704;50.534;6.442;2023-11-19T04:51:07;7.00;;;1.23;;
62633;SDS011;48704;50.534;6.442;2023-11-19T04:53:34;6.40;;;1.42;;
62633;SDS011;48704;50.534;6.442;2023-11-19T04:56:00;14.77;;;2.90;;
62633;SDS011;48704;50.534;6.442;2023-11-19T04:58:29;5.45;;;1.52;;
62633;SDS011;48704;50.534;6.442;2023-11-19T05:00:55;7.28;;;1.63;;
62633;SDS011;48704;50.534;6.442;2023-11-19T05:03:21;3.95;;;1.20;;
62633;SDS011;48704;50.534;6.442;2023-11-19T05:05:47;9.45;;;1.80;;
62633;SDS011;48704;50.534;6.442;2023-11-19T05:08:40;12.50;;;1.92;;
62633;SDS011;48704;50.534;6.442;2023-11-19T05:11:14;9.10;;;1.50;;
62633;SDS011;48704;50.534;6.442;2023-11-19T05:13:43;7.47;;;1.58;;
62633;SDS011;48704;50.534;6.442;2023-11-19T05:16:10;6.55;;;1.33;;
62633;SDS011;48704;50.534;6.442;2023-11-19T05:18:36;11.93;;;1.80;;
62633;SDS011;48704;50.534;6.442;2023-11-19T05:21:01;6.65;;;1.70;;
62633;SDS011;48704;50.534;6.442;2023-11-19T05:23:27;6.18;;;1.85;;
62633;SDS011;48704;50.534;6.442;2023-11-19T05:25:54;12.90;;;2.40;;
62633;SDS011;48704;50.534;6.442;2023-11-19T05:28:21;7.07;;;1.95;;
62633;SDS011;48704;50.534;6.442;2023-11-19T05:30:49;7.18;;;1.58;;
62633;SDS011;48704;50.534;6.442;2023-11-19T05:33:15;12.50;;;2.78;;
62633;SDS011;48704;50.534;6.442;2023-11-19T05:35:40;8.88;;;1.85;;
62633;SDS011;48704;50.534;6.442;2023-11-19T05:38:05;7.38;;;1.60;;
62633;SDS011;48704;50.534;6.442;2023-11-19T05:40:31;5.15;;;2.15;;
62633;SDS011;48704;50.534;6.442;2023-11-19T05:42:56;5.60;;;1.40;;
62633;SDS011;48704;50.534;6.442;2023-11-19T05:45:21;8.77;;;1.30;;
62633;SDS011;48704;50.534;6.442;2023-11-19T05:47:47;8.85;;;1.83;;
62633;SDS011;48704;50.534;6.442;2023-11-19T05:50:12;9.90;;;1.40;;
62633;SDS011;48704;50.534;6.442;2023-11-19T05:52:37;10.48;;;1.73;;
62633;SDS011;48704;50.534;6.442;2023-11-19T05:55:03;5.70;;;1.65;;
62633;SDS011;48704;50.534;6.442;2023-11-19T05:57:35;9.35;;;1.77;;
62633;SDS011;48704;50.534;6.442;2023-11-19T06:00:05;14.57;;;1.92;;
62633;SDS011;48704;50.534;6.442;2023-11-19T06:02:35;11.10;;;1.80;;
62633;SDS011;48704;50.534;6.442;2023-11-19T06:05:02;5.18;;;1.15;;
62633;SDS011;48704;50.534;6.442;2023-11-19T06:07:28;11.48;;;1.52;;
62633;SDS011;48704;50.534;6.442;2023-11-19T06:09:53;12.02;;;2.45;;
62633;SDS011;48704;50.534;6.442;2023-11-19T06:12:18;14.88;;;2.45;;
62633;SDS011;48704;50.534;6.442;2023-11-19T06:14:44;8.23;;;1.40;;
62633;SDS011;48704;50.534;6.442;2023-11-19T06:17:09;12.02;;;2.08;;
62633;SDS011;48704;50.534;6.442;2023-11-19T06:19:36;7.90;;;1.67;;
62633;SDS011;48704;50.534;6.442;2023-11-19T06:22:02;3.97;;;1.10;;
62633;SDS011;48704;50.534;6.442;2023-11-19T06:24:28;10.68;;;1.95;;
62633;SDS011;48704;50.534;6.442;2023-11-19T06:26:53;8.85;;;2.00;;
62633;SDS011;48704;50.534;6.442;2023-11-19T06:29:19;12.52;;;1.80;;
62633;SDS011;48704;50.534;6.442;2023-11-19T06:31:44;8.82;;;1.85;;
62633;SDS011;48704;50.534;6.442;2023-11-19T06:34:10;11.63;;;1.45;;
62633;SDS011;48704;50.534;6.442;2023-11-19T06:36:35;13.77;;;2.25;;
62633;SDS011;48704;50.534;6.442;2023-11-19T06:39:01;21.58;;;2.30;;
62633;SDS011;48704;50.534;6.442;2023-11-19T06:41:26;10.07;;;2.30;;
62633;SDS011;48704;50.534;6.442;2023-11-19T06:43:53;15.60;;;2.80;;
62633;SDS011;48704;50.534;6.442;2023-11-19T06:46:19;21.35;;;2.08;;
62633;SDS011;48704;50.534;6.442;2023-11-19T06:48:44;10.32;;;1.80;;
62633;SDS011;48704;50.534;6.442;2023-11-19T06:51:10;10.18;;;2.80;;
62633;SDS011;48704;50.534;6.442;2023-11-19T06:53:36;13.88;;;2.55;;
62633;SDS011;48704;50.534;6.442;2023-11-19T06:56:01;17.75;;;2.20;;
62633;SDS011;48704;50.534;6.442;2023-11-19T06:58:31;9.25;;;2.10;;
62633;SDS011;48704;50.534;6.442;2023-11-19T07:00:57;11.48;;;1.95;;
62633;SDS011;48704;50.534;6.442;2023-11-19T07:03:22;12.25;;;2.42;;
62633;SDS011;48704;50.534;6.442;2023-11-19T07:05:48;11.23;;;2.30;;
62633;SDS011;48704;50.534;6.442;2023-11-19T07:08:13;22.73;;;2.60;;
62633;SDS011;48704;50.534;6.442;2023-11-19T07:10:39;11.88;;;2.00;;
62633;SDS011;48704;50.534;6.442;2023-11-19T07:13:04;21.42;;;1.77;;
62633;SDS011;48704;50.534;6.442;2023-11-19T07:15:31;13.98;;;2.42;;
62633;SDS011;48704;50.534;6.442;2023-11-19T07:18:01;10.32;;;2.50;;
62633;SDS011;48704;50.534;6.442;2023-11-19T07:20:27;14.48;;;2.33;;
62633;SDS011;48704;50.534;6.442;2023-11-19T07:22:55;8.43;;;2.55;;
62633;SDS011;48704;50.534;6.442;2023-11-19T07:25:22;14.60;;;1.75;;
62633;SDS011;48704;50.534;6.442;2023-11-19T07:27:48;9.50;;;1.77;;
62633;SDS011;48704;50.534;6.442;2023-11-19T07:30:14;22.58;;;3.13;;
62633;SDS011;48704;50.534;6.442;2023-11-19T07:32:39;15.13;;;3.55;;
62633;SDS011;48704;50.534;6.442;2023-11-19T07:35:04;14.43;;;2.85;;
62633;SDS011;48704;50.534;6.442;2023-11-19T07:37:30;14.07;;;2.13;;
62633;SDS011;48704;50.534;6.442;2023-11-19T07:39:56;16.77;;;1.98;;
62633;SDS011;48704;50.534;6.442;2023-11-19T07:42:21;16.13;;;2.38;;
62633;SDS011;48704;50.534;6.442;2023-11-19T07:44:47;11.38;;;1.77;;
62633;SDS011;48704;50.534;6.442;2023-11-19T07:47:13;12.18;;;1.85;;
62633;SDS011;48704;50.534;6.442;2023-11-19T07:49:38;11.15;;;1.73;;
62633;SDS011;48704;50.534;6.442;2023-11-19T07:52:04;11.27;;;2.05;;
62633;SDS011;48704;50.534;6.442;2023-11-19T07:54:29;22.88;;;2.72;;
62633;SDS011;48704;50.534;6.442;2023-11-19T07:56:55;14.15;;;2.78;;
62633;SDS011;48704;50.534;6.442;2023-11-19T07:59:20;18.85;;;2.75;;
62633;SDS011;48704;50.534;6.442;2023-11-19T08:01:46;15.32;;;2.53;;
62633;SDS011;48704;50.534;6.442;2023-11-19T08:04:11;15.48;;;2.95;;
62633;SDS011;48704;50.534;6.442;2023-11-19T08:06:37;11.95;;;3.30;;
62633;SDS011;48704;50.534;6.442;2023-11-19T08:09:02;17.27;;;3.28;;
62633;SDS011;48704;50.534;6.442;2023-11-19T08:11:27;20.83;;;3.88;;
62633;SDS011;48704;50.534;6.442;2023-11-19T08:13:53;16.92;;;3.75;;
62633;SDS011;48704;50.534;6.442;2023-11-19T08:16:18;18.48;;;3.13;;
62633;SDS011;48704;50.534;6.442;2023-11-19T08:18:43;17.35;;;2.60;;
62633;SDS011;48704;50.534;6.442;2023-11-19T08:21:09;13.38;;;1.92;;
62633;SDS011;48704;50.534;6.442;2023-11-19T08:23:35;23.52;;;3.25;;
62633;SDS011;48704;50.534;6.442;2023-11-19T08:26:01;14.93;;;2.38;;
62633;SDS011;48704;50.534;6.442;2023-11-19T08:28:28;9.90;;;1.92;;
62633;SDS011;48704;50.534;6.442;2023-11-19T08:30:54;14.48;;;2.08;;
62633;SDS011;48704;50.534;6.442;2023-11-19T08:33:19;22.15;;;2.03;;
62633;SDS011;48704;50.534;6.442;2023-11-19T08:35:47;11.63;;;2.55;;
62633;SDS011;48704;50.534;6.442;2023-11-19T08:38:12;16.58;;;2.08;;
62633;SDS011;48704;50.534;6.442;2023-11-19T08:40:38;9.75;;;2.22;;
62633;SDS011;48704;50.534;6.442;2023-11-19T08:43:03;13.05;;;2.42;;
62633;SDS011;48704;50.534;6.442;2023-11-19T08:45:29;18.35;;;2.10;;
62633;SDS011;48704;50.534;6.442;2023-11-19T08:47:55;18.02;;;2.50;;
62633;SDS011;48704;50.534;6.442;2023-11-19T08:50:20;13.38;;;1.92;;
62633;SDS011;48704;50.534;6.442;2023-11-19T08:52:46;10.45;;;3.00;;
62633;SDS011;48704;50.534;6.442;2023-11-19T08:55:11;10.50;;;3.28;;
62633;SDS011;48704;50.534;6.442;2023-11-19T08:57:38;14.82;;;2.65;;
62633;SDS011;48704;50.534;6.442;2023-11-19T09:00:04;14.55;;;2.60;;
62633;SDS011;48704;50.534;6.442;2023-11-19T09:02:33;19.75;;;2.78;;
62633;SDS011;48704;50.534;6.442;2023-11-19T09:05:02;20.02;;;2.20;;
62633;SDS011;48704;50.534;6.442;2023-11-19T09:07:28;10.10;;;1.83;;
62633;SDS011;48704;50.534;6.442;2023-11-19T09:09:53;10.13;;;2.03;;
62633;SDS011;48704;50.534;6.442;2023-11-19T09:12:18;14.07;;;2.72;;
62633;SDS011;48704;50.534;6.442;2023-11-19T09:14:44;14.90;;;1.83;;
62633;SDS011;48704;50.534;6.442;2023-11-19T09:17:11;15.23;;;2.58;;
62633;SDS011;48704;50.534;6.442;2023-11-19T09:19:36;10.90;;;1.98;;
62633;SDS011;48704;50.534;6.442;2023-11-19T09:22:02;10.70;;;1.60;;
62633;SDS011;48704;50.534;6.442;2023-11-19T09:24:27;22.48;;;2.65;;
62633;SDS011;48704;50.534;6.442;2023-11-19T09:26:53;9.48;;;1.63;;
62633;SDS011;48704;50.534;6.442;2023-11-19T09:29:19;15.00;;;2.75;;
62633;SDS011;48704;50.534;6.442;2023-11-19T09:31:46;18.63;;;2.70;;
62633;SDS011;48704;50.534;6.442;2023-11-19T09:34:11;15.90;;;2.42;;
62633;SDS011;48704;50.534;6.442;2023-11-19T09:36:37;16.17;;;1.73;;
62633;SDS011;48704;50.534;6.442;2023-11-19T09:39:02;13.48;;;1.92;;
62633;SDS011;48704;50.534;6.442;2023-11-19T09:41:29;15.90;;;2.97;;
62633;SDS011;48704;50.534;6.442;2023-11-19T09:43:56;13.63;;;2.00;;
62633;SDS011;48704;50.534;6.442;2023-11-19T09:46:21;8.30;;;2.22;;
62633;SDS011;48704;50.534;6.442;2023-11-19T09:48:49;11.80;;;2.13;;
62633;SDS011;48704;50.534;6.442;2023-11-19T09:51:19;10.13;;;2.45;;
62633;SDS011;48704;50.534;6.442;2023-11-19T09:53:45;15.95;;;2.95;;
62633;SDS011;48704;50.534;6.442;2023-11-19T09:56:10;15.68;;;2.65;;
62633;SDS011;48704;50.534;6.442;2023-11-19T09:58:37;16.25;;;2.63;;
62633;SDS011;48704;50.534;6.442;2023-11-19T10:01:02;16.95;;;2.45;;
62633;SDS011;48704;50.534;6.442;2023-11-19T10:03:33;10.07;;;1.95;;
62633;SDS011;48704;50.534;6.442;2023-11-19T10:06:06;11.73;;;1.85;;
62633;SDS011;48704;50.534;6.442;2023-11-19T10:08:32;12.27;;;2.28;;
62633;SDS011;48704;50.534;6.442;2023-11-19T10:10:57;12.95;;;3.47;;
62633;SDS011;48704;50.534;6.442;2023-11-19T10:13:27;12.35;;;2.10;;
62633;SDS011;48704;50.534;6.442;2023-11-19T10:15:53;19.52;;;3.08;;
62633;SDS011;48704;50.534;6.442;2023-11-19T10:18:24;15.80;;;2.50;;
62633;SDS011;48704;50.534;6.442;2023-11-19T10:20:50;17.25;;;2.42;;
62633;SDS011;48704;50.534;6.442;2023-11-19T10:23:16;13.68;;;1.88;;
62633;SDS011;48704;50.534;6.442;2023-11-19T10:25:41;16.35;;;2.47;;
62633;SDS011;48704;50.534;6.442;2023-11-19T10:28:07;12.40;;;2.28;;
62633;SDS011;48704;50.534;6.442;2023-11-19T10:30:32;15.98;;;2.67;;
62633;SDS011;48704;50.534;6.442;2023-11-19T10:35:34;9.80;;;2.63;;
62633;SDS011;48704;50.534;6.442;2023-11-19T10:38:00;8.10;;;1.67;;
62633;SDS011;48704;50.534;6.442;2023-11-19T10:40:39;9.82;;;1.88;;
62633;SDS011;48704;50.534;6.442;2023-11-19T10:43:07;10.35;;;2.47;;
62633;SDS011;48704;50.534;6.442;2023-11-19T10:45:37;17.77;;;2.83;;
62633;SDS011;48704;50.534;6.442;2023-11-19T10:48:03;10.80;;;2.17;;
62633;SDS011;48704;50.534;6.442;2023-11-19T10:50:36;13.68;;;3.10;;
62633;SDS011;48704;50.534;6.442;2023-11-19T10:53:02;12.90;;;2.85;;
62633;SDS011;48704;50.534;6.442;2023-11-19T10:55:29;9.27;;;1.52;;
62633;SDS011;48704;50.534;6.442;2023-11-19T10:57:59;15.45;;;2.85;;
62633;SDS011;48704;50.534;6.442;2023-11-19T11:00:29;12.30;;;2.23;;
62633;SDS011;48704;50.534;6.442;2023-11-19T11:03:01;12.57;;;2.60;;
62633;SDS011;48704;50.534;6.442;2023-11-19T11:05:32;9.37;;;1.70;;
62633;SDS011;48704;50.534;6.442;2023-11-19T11:07:59;12.85;;;2.78;;
62633;SDS011;48704;50.534;6.442;2023-11-19T11:10:25;7.95;;;1.23;;
62633;SDS011;48704;50.534;6.442;2023-11-19T11:12:51;5.97;;;1.73;;
62633;SDS011;48704;50.534;6.442;2023-11-19T11:15:24;11.65;;;1.90;;
62633;SDS011;48704;50.534;6.442;2023-11-19T11:17:52;8.85;;;1.90;;
62633;SDS011;48704;50.534;6.442;2023-11-19T11:20:24;11.70;;;2.10;;
62633;SDS011;48704;50.534;6.442;2023-11-19T11:28:39;18.02;;;2.53;;
62633;SDS011;48704;50.534;6.442;2023-11-19T11:31:59;19.80;;;2.17;;
62633;SDS011;48704;50.534;6.442;2023-11-19T11:34:11;12.35;;;2.17;;
62633;SDS011;48704;50.534;6.442;2023-11-19T11:36:53;12.57;;;1.70;;
62633;SDS011;48704;50.534;6.442;2023-11-19T11:39:28;3.50;;;1.27;;
62633;SDS011;48704;50.534;6.442;2023-11-19T11:42:30;7.68;;;1.50;;
62633;SDS011;48704;50.534;6.442;2023-11-19T11:50:10;13.85;;;2.08;;
62633;SDS011;48704;50.534;6.442;2023-11-19T11:55:26;13.88;;;3.28;;
62633;SDS011;48704;50.534;6.442;2023-11-19T11:58:02;9.88;;;1.50;;
62633;SDS011;48704;50.534;6.442;2023-11-19T12:02:55;8.90;;;1.65;;
62633;SDS011;48704;50.534;6.442;2023-11-19T12:05:21;8.77;;;1.65;;
62633;SDS011;48704;50.534;6.442;2023-11-19T12:08:24;17.13;;;3.08;;
62633;SDS011;48704;50.534;6.442;2023-11-19T12:10:52;10.00;;;1.70;;
62633;SDS011;48704;50.534;6.442;2023-11-19T12:13:20;11.77;;;1.95;;
62633;SDS011;48704;50.534;6.442;2023-11-19T12:18:23;9.57;;;2.42;;
62633;SDS011;48704;50.534;6.442;2023-11-19T12:20:51;11.13;;;1.92;;
62633;SDS011;48704;50.534;6.442;2023-11-19T12:23:16;12.10;;;2.15;;
62633;SDS011;48704;50.534;6.442;2023-11-19T12:25:42;15.43;;;2.28;;
62633;SDS011;48704;50.534;6.442;2023-11-19T12:28:13;15.52;;;2.28;;
62633;SDS011;48704;50.534;6.442;2023-11-19T12:30:39;11.38;;;1.60;;
62633;SDS011;48704;50.534;6.442;2023-11-19T12:33:10;8.98;;;1.92;;
62633;SDS011;48704;50.534;6.442;2023-11-19T12:35:43;5.97;;;1.55;;
62633;SDS011;48704;50.534;6.442;2023-11-19T12:41:02;8.15;;;2.08;;
62633;SDS011;48704;50.534;6.442;2023-11-19T12:43:29;12.63;;;2.13;;
62633;SDS011;48704;50.534;6.442;2023-11-19T12:45:54;13.60;;;2.63;;
62633;SDS011;48704;50.534;6.442;2023-11-19T12:48:20;17.02;;;2.17;;
62633;SDS011;48704;50.534;6.442;2023-11-19T12:50:55;11.63;;;1.67;;
62633;SDS011;48704;50.534;6.442;2023-11-19T12:53:22;22.70;;;2.33;;
62633;SDS011;48704;50.534;6.442;2023-11-19T12:55:49;13.02;;;1.60;;
62633;SDS011;48704;50.534;6.442;2023-11-19T12:58:28;10.68;;;1.85;;
62633;SDS011;48704;50.534;6.442;2023-11-19T13:01:03;8.27;;;2.00;;
62633;SDS011;48704;50.534;6.442;2023-11-19T13:03:31;15.32;;;2.20;;
62633;SDS011;48704;50.534;6.442;2023-11-19T13:06:06;17.88;;;2.10;;
62633;SDS011;48704;50.534;6.442;2023-11-19T13:08:40;15.48;;;3.03;;
62633;SDS011;48704;50.534;6.442;2023-11-19T13:11:06;16.48;;;2.10;;
62633;SDS011;48704;50.534;6.442;2023-11-19T13:13:33;13.18;;;1.85;;
62633;SDS011;48704;50.534;6.442;2023-11-19T13:16:18;19.85;;;2.47;;
62633;SDS011;48704;50.534;6.442;2023-11-19T13:18:43;9.40;;;2.40;;
62633;SDS011;48704;50.534;6.442;2023-11-19T13:21:09;13.52;;;2.03;;
62633;SDS011;48704;50.534;6.442;2023-11-19T13:23:34;9.68;;;1.52;;
62633;SDS011;48704;50.534;6.442;2023-11-19T13:26:00;13.73;;;2.22;;
62633;SDS011;48704;50.534;6.442;2023-11-19T13:28:25;10.90;;;2.03;;
62633;SDS011;48704;50.534;6.442;2023-11-19T13:30:51;12.65;;;1.70;;
62633;SDS011;48704;50.534;6.442;2023-11-19T13:33:18;14.98;;;2.72;;
62633;SDS011;48704;50.534;6.442;2023-11-19T13:35:43;13.18;;;2.08;;
62633;SDS011;48704;50.534;6.442;2023-11-19T13:38:09;11.70;;;2.03;;
62633;SDS011;48704;50.534;6.442;2023-11-19T13:40:35;9.82;;;2.55;;
62633;SDS011;48704;50.534;6.442;2023-11-19T13:43:00;9.57;;;1.80;;
62633;SDS011;48704;50.534;6.442;2023-11-19T13:45:25;8.48;;;2.10;;
62633;SDS011;48704;50.534;6.442;2023-11-19T13:47:51;11.50;;;2.47;;
62633;SDS011;48704;50.534;6.442;2023-11-19T13:50:16;9.25;;;1.30;;
62633;SDS011;48704;50.534;6.442;2023-11-19T13:52:43;12.82;;;2.05;;
62633;SDS011;48704;50.534;6.442;2023-11-19T13:55:11;7.47;;;1.48;;
62633;SDS011;48704;50.534;6.442;2023-11-19T13:57:37;8.45;;;1.40;;
62633;SDS011;48704;50.534;6.442;2023-11-19T14:00:04;7.72;;;1.30;;
62633;SDS011;48704;50.534;6.442;2023-11-19T14:02:37;11.27;;;2.30;;
62633;SDS011;48704;50.534;6.442;2023-11-19T14:05:06;17.25;;;3.25;;
62633;SDS011;48704;50.534;6.442;2023-11-19T14:07:32;19.08;;;4.75;;
62633;SDS011;48704;50.534;6.442;2023-11-19T14:09:58;18.90;;;5.60;;
62633;SDS011;48704;50.534;6.442;2023-11-19T14:12:23;10.50;;;3.28;;
62633;SDS011;48704;50.534;6.442;2023-11-19T14:14:49;7.55;;;1.48;;
62633;SDS011;48704;50.534;6.442;2023-11-19T14:17:14;9.60;;;1.23;;
62633;SDS011;48704;50.534;6.442;2023-11-19T14:19:40;11.25;;;1.85;;
62633;SDS011;48704;50.534;6.442;2023-11-19T14:22:06;19.65;;;2.83;;
62633;SDS011;48704;50.534;6.442;2023-11-19T14:24:32;15.10;;;2.00;;
62633;SDS011;48704;50.534;6.442;2023-11-19T14:26:57;12.20;;;2.45;;
62633;SDS011;48704;50.534;6.442;2023-11-19T14:29:26;15.05;;;2.25;;
62633;SDS011;48704;50.534;6.442;2023-11-19T14:31:51;11.75;;;2.28;;
62633;SDS011;48704;50.534;6.442;2023-11-19T14:34:18;12.27;;;2.72;;
62633;SDS011;48704;50.534;6.442;2023-11-19T14:36:44;7.97;;;1.90;;
62633;SDS011;48704;50.534;6.442;2023-11-19T14:39:10;9.02;;;1.88;;
62633;SDS011;48704;50.534;6.442;2023-11-19T14:41:35;13.23;;;2.10;;
62633;SDS011;48704;50.534;6.442;2023-11-19T14:44:00;16.48;;;2.40;;
62633;SDS011;48704;50.534;6.442;2023-11-19T14:46:26;13.13;;;2.40;;
62633;SDS011;48704;50.534;6.442;2023-11-19T14:48:52;11.18;;;2.80;;
62633;SDS011;48704;50.534;6.442;2023-11-19T14:51:17;14.98;;;2.65;;
62633;SDS011;48704;50.534;6.442;2023-11-19T14:53:43;17.00;;;2.00;;
62633;SDS011;48704;50.534;6.442;2023-11-19T14:56:11;14.48;;;2.40;;
62633;SDS011;48704;50.534;6.442;2023-11-19T14:58:37;15.95;;;2.42;;
62633;SDS011;48704;50.534;6.442;2023-11-19T15:01:03;12.32;;;1.95;;
62633;SDS011;48704;50.534;6.442;2023-11-19T15:03:29;11.20;;;3.10;;
62633;SDS011;48704;50.534;6.442;2023-11-19T15:05:55;11.15;;;2.05;;
62633;SDS011;48704;50.534;6.442;2023-11-19T15:08:21;10.55;;;1.83;;
62633;SDS011;48704;50.534;6.442;2023-11-19T15:10:46;15.90;;;2.85;;
62633;SDS011;48704;50.534;6.442;2023-11-19T15:13:12;10.82;;;1.88;;
62633;SDS011;48704;50.534;6.442;2023-11-19T15:15:37;17.05;;;2.63;;
62633;SDS011;48704;50.534;6.442;2023-11-19T15:18:04;8.52;;;1.67;;
62633;SDS011;48704;50.534;6.442;2023-11-19T15:20:29;17.25;;;2.13;;
62633;SDS011;48704;50.534;6.442;2023-11-19T15:22:56;11.50;;;2.13;;
62633;SDS011;48704;50.534;6.442;2023-11-19T15:25:24;11.50;;;1.90;;
62633;SDS011;48704;50.534;6.442;2023-11-19T15:27:50;14.40;;;1.95;;
62633;SDS011;48704;50.534;6.442;2023-11-19T15:30:15;9.02;;;1.67;;
62633;SDS011;48704;50.534;6.442;2023-11-19T15:32:44;14.85;;;2.00;;
62633;SDS011;48704;50.534;6.442;2023-11-19T15:35:09;12.60;;;2.67;;
62633;SDS011;48704;50.534;6.442;2023-11-19T15:37:35;13.65;;;2.10;;
62633;SDS011;48704;50.534;6.442;2023-11-19T15:40:02;11.38;;;2.13;;